createdAt,value
2018-08-28T00:02:01.277Z,96.50
2018-08-28T00:04:29.560Z,96.60
2018-08-28T00:06:58.099Z,96.60
2018-08-28T00:09:26.711Z,96.70
2018-08-28T00:11:56.403Z,96.80
2018-08-28T00:14:24.829Z,96.80
2018-08-28T00:16:53.322Z,96.50
2018-08-28T00:19:21.518Z,96.70
2018-08-28T00:21:53.590Z,96.70
2018-08-28T00:24:22.209Z,96.70
2018-08-28T00:26:50.606Z,96.70
2018-08-28T00:29:19.107Z,96.60
2018-08-28T00:31:47.366Z,96.60
2018-08-28T00:34:15.586Z,96.50
2018-08-28T00:36:44.082Z,96.50
2018-08-28T00:39:12.602Z,96.50
2018-08-28T00:41:40.998Z,96.60
2018-08-28T00:44:09.300Z,96.70
2018-08-28T00:46:38.108Z,96.80
2018-08-28T00:49:06.389Z,97.00
2018-08-28T00:51:34.808Z,97.00
2018-08-28T00:54:03.301Z,97.20
2018-08-28T00:56:31.783Z,97.30
2018-08-28T00:59:00.006Z,97.30
2018-08-28T01:01:28.383Z,97.30
2018-08-28T01:03:56.788Z,97.30
2018-08-28T01:06:25.306Z,97.60
2018-08-28T01:08:53.700Z,97.60
2018-08-28T01:11:22.077Z,97.50
2018-08-28T01:13:50.887Z,97.60
2018-08-28T01:16:19.215Z,97.60
2018-08-28T01:18:47.475Z,97.60
2018-08-28T01:21:15.903Z,97.60
2018-08-28T01:23:44.348Z,97.60
2018-08-28T01:26:12.494Z,97.60
2018-08-28T01:28:40.690Z,97.50
2018-08-28T01:31:08.998Z,97.50
2018-08-28T01:33:40.995Z,97.50
2018-08-28T01:36:09.471Z,97.50
2018-08-28T01:38:37.663Z,97.50
2018-08-28T01:41:06.214Z,97.50
2018-08-28T01:43:36.595Z,97.60
2018-08-28T01:46:05.119Z,97.50
2018-08-28T01:48:33.535Z,97.60
2018-08-28T01:51:02.447Z,97.70
2018-08-28T01:53:30.635Z,97.60
2018-08-28T01:55:58.909Z,97.70
2018-08-28T01:58:27.228Z,97.70
2018-08-28T02:00:55.817Z,97.80
2018-08-28T02:03:24.229Z,97.90
2018-08-28T02:05:52.712Z,97.90
2018-08-28T02:08:21.227Z,97.80
2018-08-28T02:10:49.614Z,98.00
2018-08-28T02:13:18.080Z,98.00
2018-08-28T02:15:46.335Z,98.40
2018-08-28T02:18:14.622Z,98.00
2018-08-28T02:20:43.350Z,98.00
2018-08-28T02:23:11.733Z,98.10
2018-08-28T02:25:40.142Z,98.20
2018-08-28T02:28:08.624Z,98.20
2018-08-28T02:30:37.374Z,98.60
2018-08-28T02:33:06.035Z,98.10
2018-08-28T02:35:34.447Z,98.30
2018-08-28T02:38:02.845Z,98.40
2018-08-28T02:40:31.345Z,98.40
2018-08-28T02:42:59.853Z,98.30
2018-08-28T02:45:28.123Z,98.40
2018-08-28T02:47:56.447Z,98.40
2018-08-28T02:50:24.909Z,98.80
2018-08-28T02:52:53.217Z,98.50
2018-08-28T02:55:21.500Z,98.60
2018-08-28T02:57:49.912Z,98.70
2018-08-28T03:00:18.322Z,98.70
2018-08-28T03:02:46.638Z,98.80
2018-08-28T03:05:14.808Z,98.70
2018-08-28T03:07:43.469Z,98.80
2018-08-28T03:10:11.938Z,99.20
2018-08-28T03:12:40.342Z,98.90
2018-08-28T03:15:08.806Z,99.00
2018-08-28T03:17:37.100Z,99.00
2018-08-28T03:20:05.632Z,99.00
2018-08-28T03:22:35.241Z,99.00
2018-08-28T03:25:03.574Z,99.00
2018-08-28T03:27:32.061Z,99.50
2018-08-28T03:30:00.428Z,99.30
2018-08-28T03:32:28.939Z,99.20
2018-08-28T03:34:57.247Z,99.20
2018-08-28T03:37:25.865Z,99.30
2018-08-28T03:39:54.000Z,99.40
2018-08-28T03:42:22.265Z,99.40
2018-08-28T03:44:50.542Z,99.40
2018-08-28T03:47:19.156Z,99.40
2018-08-28T03:49:47.548Z,99.80
2018-08-28T03:52:16.168Z,99.50
2018-08-28T03:54:44.623Z,99.40
2018-08-28T03:57:13.225Z,99.40
2018-08-28T03:59:41.838Z,99.60
2018-08-28T04:02:10.263Z,99.60
2018-08-28T04:04:41.910Z,99.60
2018-08-28T04:07:11.277Z,99.60
2018-08-28T04:09:39.474Z,99.60
2018-08-28T04:12:07.524Z,99.60
2018-08-28T04:14:35.991Z,99.80
2018-08-28T04:17:04.600Z,99.80
2018-08-28T04:19:35.106Z,99.80
2018-08-28T04:22:03.498Z,99.90
2018-08-28T04:24:31.872Z,99.90
2018-08-28T04:27:05.205Z,99.90
2018-08-28T04:29:34.214Z,99.90
2018-08-28T04:32:02.700Z,99.90
2018-08-28T04:34:32.556Z,99.90
2018-08-28T04:37:01.020Z,99.90
2018-08-28T04:39:29.663Z,99.90
2018-08-28T04:41:58.123Z,99.90
2018-08-28T04:44:26.655Z,99.90
2018-08-28T04:46:55.269Z,99.90
2018-08-28T04:49:24.238Z,99.90
2018-08-28T04:51:52.544Z,99.90
2018-08-28T04:54:21.050Z,99.90
2018-08-28T04:56:49.271Z,99.90
2018-08-28T04:59:17.667Z,99.90
2018-08-28T05:01:46.079Z,99.90
2018-08-28T05:04:14.359Z,99.90
2018-08-28T05:06:42.566Z,99.90
2018-08-28T05:09:10.639Z,99.90
2018-08-28T05:11:38.980Z,99.80
2018-08-28T05:14:07.343Z,99.80
2018-08-28T05:16:35.638Z,99.80
2018-08-28T05:19:04.098Z,99.90
2018-08-28T05:21:32.403Z,99.60
2018-08-28T05:24:07.610Z,99.50
2018-08-28T05:26:35.992Z,99.40
2018-08-28T05:29:04.258Z,99.30
2018-08-28T05:31:32.618Z,99.10
2018-08-28T05:34:01.160Z,99.10
2018-08-28T05:36:29.482Z,99.00
2018-08-28T05:38:57.770Z,98.90
2018-08-28T05:41:26.211Z,98.90
2018-08-28T05:43:54.809Z,98.60
2018-08-28T05:46:23.187Z,98.50
2018-08-28T05:48:51.495Z,98.20
2018-08-28T05:51:19.925Z,98.20
2018-08-28T05:53:48.215Z,98.20
2018-08-28T05:56:16.565Z,98.10
2018-08-28T05:58:45.996Z,98.10
2018-08-28T06:01:14.531Z,98.00
2018-08-28T06:03:43.021Z,98.10
2018-08-28T06:06:12.316Z,97.80
2018-08-28T06:08:40.547Z,97.70
2018-08-28T06:11:09.142Z,97.80
2018-08-28T06:13:37.640Z,97.70
2018-08-28T06:16:07.272Z,97.70
2018-08-28T06:18:35.740Z,97.70
2018-08-28T06:21:04.270Z,97.70
2018-08-28T06:23:32.674Z,97.80
2018-08-28T06:26:02.182Z,97.80
2018-08-28T06:28:30.695Z,97.60
2018-08-28T06:30:59.218Z,97.50
2018-08-28T06:33:27.513Z,97.30
2018-08-28T06:35:55.991Z,97.20
2018-08-28T06:38:24.204Z,97.00
2018-08-28T06:40:52.495Z,96.90
2018-08-28T06:43:21.019Z,96.80
2018-08-28T06:45:49.375Z,96.60
2018-08-28T06:48:17.789Z,96.40
2018-08-28T06:50:46.169Z,96.20
2018-08-28T06:53:14.681Z,96.10
2018-08-28T06:55:43.301Z,95.50
2018-08-28T06:58:11.813Z,95.20
2018-08-28T07:00:41.306Z,95.10
2018-08-28T07:03:09.713Z,95.00
2018-08-28T07:05:38.324Z,95.00
2018-08-28T07:08:06.659Z,94.90
2018-08-28T07:10:35.017Z,95.00
2018-08-28T07:13:03.428Z,95.00
2018-08-28T07:15:31.595Z,95.00
2018-08-28T07:17:59.812Z,94.50
2018-08-28T07:20:27.998Z,94.10
2018-08-28T07:22:56.531Z,93.50
2018-08-28T07:25:25.170Z,92.90
2018-08-28T07:27:53.495Z,92.30
2018-08-28T07:30:21.783Z,91.60
2018-08-28T07:32:50.193Z,91.00
2018-08-28T07:35:18.541Z,90.00
2018-08-28T07:37:46.914Z,88.80
2018-08-28T07:40:15.219Z,87.20
2018-08-28T07:42:43.702Z,84.60
2018-08-28T07:45:12.225Z,82.60
2018-08-28T07:47:40.669Z,82.10
2018-08-28T07:50:09.003Z,81.70
2018-08-28T07:52:37.413Z,80.10
2018-08-28T07:55:05.791Z,79.40
2018-08-28T07:57:34.314Z,79.30
2018-08-28T08:00:02.906Z,80.10
2018-08-28T08:02:31.203Z,79.50
2018-08-28T08:04:59.603Z,79.20
2018-08-28T08:07:28.100Z,78.70
2018-08-28T08:09:56.622Z,78.70
2018-08-28T08:12:25.039Z,78.70
2018-08-28T08:14:53.432Z,79.90
2018-08-28T08:17:21.845Z,77.90
2018-08-28T08:19:50.086Z,71.10
2018-08-28T08:22:18.691Z,60.80
2018-08-28T08:24:47.123Z,55.20
2018-08-28T08:27:15.416Z,51.10
2018-08-28T08:29:44.175Z,47.40
2018-08-28T08:32:12.629Z,44.40
2018-08-28T08:34:41.099Z,43.60
2018-08-28T08:37:09.473Z,44.80
2018-08-28T08:39:37.809Z,45.10
2018-08-28T08:42:06.348Z,45.50
2018-08-28T08:44:34.705Z,46.80
2018-08-28T08:47:03.228Z,48.00
2018-08-28T08:49:31.554Z,50.00
2018-08-28T08:52:00.114Z,51.00
2018-08-28T08:54:28.514Z,52.30
2018-08-28T08:56:57.030Z,54.30
2018-08-28T08:59:25.323Z,55.30
2018-08-28T09:01:53.672Z,56.80
2018-08-28T09:04:21.800Z,57.50
2018-08-28T09:06:51.202Z,58.20
2018-08-28T09:09:19.625Z,58.90
2018-08-28T09:11:48.027Z,59.80
2018-08-28T09:14:16.624Z,60.70
2018-08-28T09:16:44.961Z,61.20
2018-08-28T09:19:13.366Z,61.80
2018-08-28T09:21:41.853Z,62.00
2018-08-28T09:24:10.029Z,62.60
2018-08-28T09:26:38.545Z,63.30
2018-08-28T09:29:06.943Z,63.60
2018-08-28T09:31:35.419Z,64.00
2018-08-28T09:34:03.843Z,64.20
2018-08-28T09:36:32.145Z,63.70
2018-08-28T09:39:00.295Z,62.30
2018-08-28T09:41:28.431Z,61.60
2018-08-28T09:43:56.769Z,61.50
2018-08-28T09:46:25.139Z,61.20
2018-08-28T09:48:53.499Z,61.30
2018-08-28T09:51:22.140Z,60.90
2018-08-28T09:53:50.425Z,60.70
2018-08-28T09:56:18.787Z,60.50
2018-08-28T09:58:47.124Z,60.30
2018-08-28T10:01:20.948Z,59.80
2018-08-28T10:03:49.322Z,59.90
2018-08-28T10:06:17.936Z,59.80
2018-08-28T10:08:46.673Z,59.40
2018-08-28T10:11:15.027Z,59.40
2018-08-28T10:13:43.350Z,58.80
2018-08-28T10:16:11.754Z,58.70
2018-08-28T10:18:40.144Z,58.20
2018-08-28T10:21:08.728Z,57.10
2018-08-28T10:23:37.446Z,56.90
2018-08-28T10:26:05.897Z,57.00
2018-08-28T10:28:34.387Z,56.40
2018-08-28T10:31:02.815Z,55.80
2018-08-28T10:33:31.137Z,55.50
2018-08-28T10:35:59.451Z,55.70
2018-08-28T10:38:27.875Z,55.80
2018-08-28T10:40:56.337Z,55.60
2018-08-28T10:43:24.760Z,54.80
2018-08-28T10:45:53.094Z,54.50
2018-08-28T10:48:22.876Z,54.00
2018-08-28T10:50:51.386Z,54.00
2018-08-28T10:53:19.684Z,54.30
2018-08-28T10:55:48.296Z,54.30
2018-08-28T10:58:16.776Z,53.90
2018-08-28T11:00:45.140Z,53.20
2018-08-28T11:03:13.496Z,52.40
2018-08-28T11:05:41.871Z,52.20
2018-08-28T11:08:10.274Z,52.50
2018-08-28T11:10:38.893Z,52.20
2018-08-28T11:13:07.514Z,51.80
2018-08-28T11:15:35.765Z,51.70
2018-08-28T11:18:04.506Z,52.00
2018-08-28T11:20:33.003Z,51.30
2018-08-28T11:23:01.558Z,51.10
2018-08-28T11:25:29.881Z,51.30
2018-08-28T11:27:58.401Z,51.00
2018-08-28T11:30:26.958Z,51.80
2018-08-28T11:32:55.402Z,51.20
2018-08-28T11:35:24.111Z,51.00
2018-08-28T11:37:52.979Z,50.40
2018-08-28T11:40:21.435Z,49.80
2018-08-28T11:42:49.940Z,49.20
2018-08-28T11:45:18.232Z,48.80
2018-08-28T11:47:46.917Z,48.50
2018-08-28T11:50:15.522Z,48.80
2018-08-28T11:52:43.672Z,48.40
2018-08-28T11:55:11.919Z,48.10
2018-08-28T11:57:40.330Z,48.20
2018-08-28T12:00:08.939Z,48.70
2018-08-28T12:02:37.322Z,49.20
2018-08-28T12:05:06.282Z,49.20
2018-08-28T12:07:34.540Z,48.90
2018-08-28T12:10:03.131Z,49.10
2018-08-28T12:12:31.349Z,48.70
2018-08-28T12:15:00.044Z,48.70
2018-08-28T12:17:28.439Z,48.90
2018-08-28T12:19:57.031Z,49.20
2018-08-28T12:22:25.659Z,48.70
2018-08-28T12:24:54.665Z,48.40
2018-08-28T12:27:22.834Z,48.20
2018-08-28T12:29:52.291Z,48.90
2018-08-28T12:32:20.671Z,48.60
2018-08-28T12:34:49.076Z,48.70
2018-08-28T12:37:17.658Z,48.10
2018-08-28T12:39:46.009Z,47.70
2018-08-28T12:42:14.541Z,47.20
2018-08-28T12:44:43.072Z,47.10
2018-08-28T12:47:11.471Z,46.80
2018-08-28T12:49:40.077Z,47.20
2018-08-28T12:52:08.366Z,47.00
2018-08-28T12:54:36.664Z,47.20
2018-08-28T12:57:05.192Z,47.50
2018-08-28T12:59:33.682Z,47.30
2018-08-28T13:02:01.947Z,47.50
2018-08-28T13:04:30.196Z,47.50
2018-08-28T13:06:58.577Z,47.40
2018-08-28T13:09:26.999Z,47.00
2018-08-28T13:11:55.423Z,47.00
2018-08-28T13:14:23.994Z,47.30
2018-08-28T13:16:52.581Z,47.40
2018-08-28T13:19:21.078Z,47.60
2018-08-28T13:21:49.618Z,47.80
2018-08-28T13:24:19.201Z,48.00
2018-08-28T13:26:47.726Z,47.70
2018-08-28T13:29:16.150Z,47.40
2018-08-28T13:31:44.420Z,47.70
2018-08-28T13:34:12.600Z,48.10
2018-08-28T13:36:41.120Z,48.30
2018-08-28T13:39:09.863Z,48.60
2018-08-28T13:41:38.270Z,47.90
2018-08-28T13:44:07.017Z,47.40
2018-08-28T13:46:37.058Z,47.70
2018-08-28T13:49:05.668Z,47.50
2018-08-28T13:51:34.289Z,47.00
2018-08-28T13:54:03.278Z,47.10
2018-08-28T13:56:31.557Z,47.10
2018-08-28T13:59:00.195Z,47.60
2018-08-28T14:01:28.724Z,47.90
2018-08-28T14:03:56.871Z,47.70
2018-08-28T14:06:25.299Z,48.20
2018-08-28T14:08:53.793Z,48.30
2018-08-28T14:11:22.502Z,48.20
2018-08-28T14:13:51.503Z,48.90
2018-08-28T14:16:20.130Z,48.40
2018-08-28T14:18:48.516Z,48.20
2018-08-28T14:21:17.158Z,47.90
2018-08-28T14:23:45.648Z,48.00
2018-08-28T14:26:13.991Z,47.80
2018-08-28T14:28:42.756Z,47.70
2018-08-28T14:31:11.127Z,47.40
2018-08-28T14:33:40.733Z,47.90
2018-08-28T14:36:09.452Z,47.70
2018-08-28T14:38:37.554Z,47.80
2018-08-28T14:41:06.062Z,47.60
2018-08-28T14:43:34.486Z,48.10
2018-08-28T14:46:02.946Z,48.50
2018-08-28T14:48:31.458Z,48.50
2018-08-28T14:50:59.858Z,48.40
2018-08-28T14:53:28.257Z,48.70
2018-08-28T14:55:56.853Z,48.60
2018-08-28T14:58:25.977Z,48.70
2018-08-28T15:00:54.471Z,48.60
2018-08-28T15:03:23.205Z,48.80
2018-08-28T15:06:08.080Z,49.10
2018-08-28T15:08:36.546Z,48.80
2018-08-28T15:11:05.066Z,48.50
2018-08-28T15:13:33.693Z,48.30
2018-08-28T15:16:02.275Z,48.70
2018-08-28T15:18:31.210Z,48.60
2018-08-28T15:20:59.824Z,48.90
2018-08-28T15:23:28.359Z,48.90
2018-08-28T15:25:56.672Z,48.90
2018-08-28T15:28:25.339Z,49.00
2018-08-28T15:30:53.902Z,49.20
2018-08-28T15:33:22.291Z,49.70
2018-08-28T15:35:50.689Z,50.00
2018-08-28T15:38:19.381Z,50.10
2018-08-28T15:40:47.801Z,50.10
2018-08-28T15:43:16.214Z,49.90
2018-08-28T15:45:44.795Z,49.90
2018-08-28T15:48:13.401Z,49.90
2018-08-28T15:50:41.651Z,50.10
2018-08-28T15:53:10.106Z,50.30
2018-08-28T15:55:38.395Z,50.10
2018-08-28T15:58:07.300Z,50.30
2018-08-28T16:00:35.673Z,50.30
2018-08-28T16:03:04.210Z,50.00
2018-08-28T16:05:32.616Z,50.10
2018-08-28T16:08:01.008Z,50.50
2018-08-28T16:10:29.192Z,51.10
2018-08-28T16:12:57.813Z,50.90
2018-08-28T16:15:26.104Z,50.70
2018-08-28T16:17:54.611Z,50.80
2018-08-28T16:20:23.362Z,50.90
2018-08-28T16:22:57.072Z,50.60
2018-08-28T16:25:25.564Z,50.90
2018-08-28T16:27:54.182Z,50.90
2018-08-28T16:30:22.536Z,50.10
2018-08-28T16:32:51.142Z,50.40
2018-08-28T16:35:19.558Z,50.50
2018-08-28T16:37:47.948Z,50.30
2018-08-28T16:40:16.333Z,50.50
2018-08-28T16:42:44.772Z,50.70
2018-08-28T16:45:13.144Z,50.90
2018-08-28T16:47:42.179Z,51.10
2018-08-28T16:50:10.710Z,51.20
2018-08-28T16:52:38.915Z,51.20
2018-08-28T16:55:07.104Z,51.40
2018-08-28T16:57:35.420Z,51.20
2018-08-28T17:00:04.143Z,51.30
2018-08-28T17:02:32.305Z,51.50
2018-08-28T17:05:00.767Z,52.00
2018-08-28T17:07:29.167Z,52.50
2018-08-28T17:09:57.540Z,52.80
2018-08-28T17:12:26.160Z,53.00
2018-08-28T17:14:55.377Z,53.20
2018-08-28T17:17:23.876Z,53.80
2018-08-28T17:19:52.796Z,53.90
2018-08-28T17:22:21.688Z,54.00
2018-08-28T17:24:50.212Z,54.40
2018-08-28T17:27:18.592Z,55.40
2018-08-28T17:29:46.832Z,55.70
2018-08-28T17:32:15.385Z,55.80
2018-08-28T17:34:43.961Z,56.00
2018-08-28T17:37:12.502Z,56.20
2018-08-28T17:39:41.101Z,56.80
2018-08-28T17:42:09.399Z,57.20
2018-08-28T17:44:37.799Z,57.60
2018-08-28T17:47:06.187Z,58.00
2018-08-28T17:49:34.477Z,58.30
2018-08-28T17:52:03.039Z,58.60
2018-08-28T17:54:31.307Z,59.40
2018-08-28T17:56:59.712Z,59.10
2018-08-28T17:59:27.993Z,59.40
2018-08-28T18:01:56.595Z,59.90
2018-08-28T18:04:24.788Z,60.40
2018-08-28T18:06:53.197Z,60.70
2018-08-28T18:09:21.975Z,61.30
2018-08-28T18:11:50.607Z,61.80
2018-08-28T18:14:18.910Z,62.20
2018-08-28T18:16:49.330Z,62.80
2018-08-28T18:19:17.735Z,63.20
2018-08-28T18:21:46.176Z,63.60
2018-08-28T18:24:14.445Z,64.50
2018-08-28T18:26:43.041Z,64.80
2018-08-28T18:29:12.318Z,65.20
2018-08-28T18:31:40.846Z,65.60
2018-08-28T18:34:10.314Z,65.80
2018-08-28T18:36:38.705Z,66.20
2018-08-28T18:39:07.891Z,66.00
2018-08-28T18:41:36.365Z,66.00
2018-08-28T18:44:04.789Z,66.90
2018-08-28T18:46:33.305Z,65.80
2018-08-28T18:49:02.019Z,65.90
2018-08-28T18:51:30.412Z,65.90
2018-08-28T18:53:58.899Z,66.00
2018-08-28T18:56:27.422Z,66.20
2018-08-28T18:58:55.982Z,67.30
2018-08-28T19:01:24.322Z,66.90
2018-08-28T19:03:52.801Z,67.30
2018-08-28T19:06:21.212Z,67.50
2018-08-28T19:08:49.548Z,67.40
2018-08-28T19:11:17.924Z,67.60
2018-08-28T19:13:46.798Z,67.40
2018-08-28T19:16:15.248Z,67.30
2018-08-28T19:18:43.964Z,67.40
2018-08-28T19:21:12.551Z,67.40
2018-08-28T19:23:40.946Z,67.50
2018-08-28T19:26:09.980Z,67.30
2018-08-28T19:28:39.770Z,67.10
2018-08-28T19:31:08.224Z,67.00
2018-08-28T19:33:36.578Z,66.90
2018-08-28T19:36:05.069Z,66.90
2018-08-28T19:38:33.909Z,66.90
2018-08-28T19:41:02.094Z,67.10
2018-08-28T19:43:30.570Z,67.00
2018-08-28T19:45:59.199Z,67.10
2018-08-28T19:48:27.819Z,67.40
2018-08-28T19:50:56.313Z,67.70
2018-08-28T19:53:24.806Z,67.70
2018-08-28T19:55:54.044Z,67.80
2018-08-28T19:58:23.645Z,67.90
2018-08-28T20:00:52.152Z,68.00
2018-08-28T20:03:20.368Z,68.10
2018-08-28T20:05:50.076Z,68.20
2018-08-28T20:08:18.418Z,68.30
2018-08-28T20:10:47.262Z,68.30
2018-08-28T20:13:15.787Z,68.30
2018-08-28T20:15:44.066Z,68.90
2018-08-28T20:18:12.458Z,68.50
2018-08-28T20:20:40.884Z,68.60
2018-08-28T20:23:09.487Z,68.80
2018-08-28T20:25:38.097Z,68.80
2018-08-28T20:28:06.602Z,69.10
2018-08-28T20:30:34.898Z,69.20
2018-08-28T20:33:04.309Z,69.20
2018-08-28T20:35:32.704Z,69.40
2018-08-28T20:38:01.196Z,69.30
2018-08-28T20:40:29.707Z,69.60
2018-08-28T20:42:58.212Z,69.80
2018-08-28T20:45:26.399Z,70.00
2018-08-28T20:47:54.918Z,70.00
2018-08-28T20:50:23.294Z,70.80
2018-08-28T20:52:51.634Z,70.20
2018-08-28T20:55:20.009Z,70.80
2018-08-28T20:57:48.374Z,71.50
2018-08-28T21:00:16.799Z,72.00
2018-08-28T21:02:45.314Z,72.60
2018-08-28T21:05:15.702Z,73.20
2018-08-28T21:07:44.119Z,73.70
2018-08-28T21:10:12.760Z,73.90
2018-08-28T21:12:41.433Z,74.20
2018-08-28T21:15:09.774Z,74.50
2018-08-28T21:17:38.773Z,74.80
2018-08-28T21:20:07.779Z,75.10
2018-08-28T21:22:40.335Z,75.90
2018-08-28T21:25:08.760Z,76.40
2018-08-28T21:27:37.174Z,76.70
2018-08-28T21:30:05.940Z,77.00
2018-08-28T21:32:34.653Z,77.70
2018-08-28T21:35:03.186Z,78.00
2018-08-28T21:37:31.685Z,78.40
2018-08-28T21:40:00.021Z,78.70
2018-08-28T21:42:28.739Z,79.00
2018-08-28T21:44:59.348Z,79.40
2018-08-28T21:47:27.654Z,79.80
2018-08-28T21:49:56.527Z,80.20
2018-08-28T21:52:25.236Z,80.70
2018-08-28T21:54:53.673Z,81.00
2018-08-28T21:57:22.357Z,81.40
2018-08-28T21:59:50.977Z,81.60
2018-08-28T22:02:19.463Z,81.60
2018-08-28T22:04:47.769Z,80.90
2018-08-28T22:07:21.435Z,79.90
2018-08-28T22:09:50.001Z,78.90
2018-08-28T22:12:18.406Z,78.20
2018-08-28T22:14:46.914Z,77.50
2018-08-28T22:17:15.310Z,76.90
2018-08-28T22:19:43.570Z,76.30
2018-08-28T22:22:12.102Z,76.10
2018-08-28T22:24:40.586Z,76.20
2018-08-28T22:27:09.731Z,76.50
2018-08-28T22:29:38.324Z,77.80
2018-08-28T22:32:06.688Z,77.60
2018-08-28T22:34:35.122Z,78.10
2018-08-28T22:37:03.634Z,78.70
2018-08-28T22:39:31.818Z,79.20
2018-08-28T22:42:00.082Z,79.60
2018-08-28T22:44:28.398Z,79.90
2018-08-28T22:46:58.041Z,80.40
2018-08-28T22:49:26.233Z,80.70
2018-08-28T22:51:54.728Z,81.00
2018-08-28T22:54:23.021Z,81.40
2018-08-28T22:56:52.442Z,81.70
2018-08-28T22:59:20.839Z,82.50
2018-08-28T23:01:49.239Z,82.50
2018-08-28T23:04:17.648Z,83.00
2018-08-28T23:06:46.164Z,83.30
2018-08-28T23:09:14.650Z,83.60
2018-08-28T23:11:42.833Z,83.70
2018-08-28T23:14:11.051Z,83.90
2018-08-28T23:16:39.329Z,84.30
2018-08-28T23:19:07.752Z,84.40
2018-08-28T23:21:36.137Z,84.70
2018-08-28T23:24:04.626Z,84.90
2018-08-28T23:26:33.148Z,85.40
2018-08-28T23:29:01.661Z,85.70
2018-08-28T23:31:30.058Z,85.90
2018-08-28T23:33:58.434Z,86.30
2018-08-28T23:36:26.750Z,86.40
2018-08-28T23:38:55.049Z,86.00
2018-08-28T23:41:23.847Z,86.80
2018-08-28T23:43:52.463Z,86.80
2018-08-28T23:46:20.747Z,86.80
2018-08-28T23:48:49.735Z,87.00
2018-08-28T23:51:18.153Z,87.20
2018-08-28T23:53:46.563Z,87.30
2018-08-28T23:56:14.846Z,87.60
2018-08-28T23:58:43.380Z,87.50
